EGJA/ACI METAR and TAF weather

Enter ICAO airport designator
Station Type Date Time Source
EGJA METAR 2022/06/29 17:20 UTC NOAA

EGJA 291720Z 23007KT 9999 FEW009 14/13 Q1012


Station Type Date Time Source
EGJA Decoded METAR 2022/06/29 17:20 UTC NOAA

Alderney / Channel Island, United Kingdom (EGJA) 49-43N 002-12W
Jun 29, 2022 - 01:20 PM EDT / 2022.06.29 1720 UTC
Wind: from the SW (230 degrees) at 8 MPH (7 KT):0
Visibility: greater than 7 mile(s):0
Sky conditions: mostly clear
Temperature: 57 F (14 C)
Dew Point: 55 F (13 C)
Relative Humidity: 93%
Pressure (altimeter): 29.88 in. Hg (1012 hPa)
ob: EGJA 291720Z 23007KT 9999 FEW009 14/13 Q1012
cycle: 17

Station Type Date Time Source
EGJA TAF UTC NOAA

Error!

Example: see airport list